createdAt,value
2023-05-15T00:02:26.746Z,13.39
2023-05-15T00:04:54.685Z,13.40
2023-05-15T00:07:22.573Z,13.40
2023-05-15T00:09:50.314Z,13.40
2023-05-15T00:12:18.715Z,13.41
2023-05-15T00:14:46.450Z,13.40
2023-05-15T00:17:14.395Z,13.38
2023-05-15T00:19:43.729Z,13.34
2023-05-15T00:22:11.427Z,13.33
2023-05-15T00:24:39.095Z,13.30
2023-05-15T00:27:07.279Z,13.28
2023-05-15T00:29:35.030Z,13.24
2023-05-15T00:32:02.700Z,13.23
2023-05-15T00:34:30.457Z,13.22
2023-05-15T00:37:00.405Z,13.16
2023-05-15T00:39:28.182Z,13.14
2023-05-15T00:41:56.939Z,13.11
2023-05-15T00:44:26.306Z,13.09
2023-05-15T00:46:55.586Z,13.11
2023-05-15T00:49:24.656Z,13.13
2023-05-15T00:51:53.024Z,13.17
2023-05-15T00:54:22.080Z,13.19
2023-05-15T00:56:51.920Z,13.19
2023-05-15T00:59:20.649Z,13.16
2023-05-15T01:01:48.388Z,13.13
2023-05-15T01:04:16.215Z,13.11
2023-05-15T01:06:44.353Z,13.07
2023-05-15T01:09:13.801Z,13.05
2023-05-15T01:11:43.821Z,13.02
2023-05-15T01:14:11.529Z,12.97
2023-05-15T01:16:39.332Z,12.92
2023-05-15T01:19:07.179Z,12.89
2023-05-15T01:21:55.786Z,12.87
2023-05-15T01:24:44.579Z,12.87
2023-05-15T01:27:27.281Z,12.86
2023-05-15T01:30:04.103Z,12.85
2023-05-15T01:32:41.364Z,12.84
2023-05-15T01:35:14.520Z,12.81
2023-05-15T01:37:46.100Z,12.80
2023-05-15T01:40:17.338Z,12.75
2023-05-15T01:42:55.051Z,12.74
2023-05-15T01:45:25.686Z,12.70
2023-05-15T01:47:56.907Z,12.67
2023-05-15T01:50:27.043Z,12.67
2023-05-15T01:52:59.484Z,12.69
2023-05-15T01:55:30.456Z,12.69
2023-05-15T01:58:02.350Z,12.66
2023-05-15T02:00:30.449Z,12.65
2023-05-15T02:02:58.930Z,12.67
2023-05-15T02:05:28.147Z,12.69
2023-05-15T02:07:56.391Z,12.71
2023-05-15T02:10:24.765Z,12.70
2023-05-15T02:12:53.853Z,12.70
2023-05-15T02:15:24.509Z,12.71
2023-05-15T02:17:52.474Z,12.70
2023-05-15T02:20:20.227Z,12.65
2023-05-15T02:22:48.051Z,12.62
2023-05-15T02:25:16.036Z,12.63
2023-05-15T02:27:49.541Z,12.63
2023-05-15T02:30:36.107Z,12.60
2023-05-15T02:33:13.901Z,12.55
2023-05-15T02:35:50.205Z,12.53
2023-05-15T02:38:21.634Z,12.52
2023-05-15T02:40:49.653Z,12.49
2023-05-15T02:43:19.758Z,12.46
2023-05-15T02:45:49.754Z,12.40
2023-05-15T02:48:18.689Z,12.35
2023-05-15T02:50:46.624Z,12.35
2023-05-15T02:53:14.603Z,12.34
2023-05-15T02:55:42.475Z,12.37
2023-05-15T02:58:11.020Z,12.35
2023-05-15T03:00:38.734Z,12.32
2023-05-15T03:03:07.881Z,12.30
2023-05-15T03:05:35.594Z,12.29
2023-05-15T03:08:03.348Z,12.29
2023-05-15T03:10:31.088Z,12.28
2023-05-15T03:12:59.239Z,12.29
2023-05-15T03:15:27.371Z,12.27
2023-05-15T03:17:55.885Z,12.23
2023-05-15T03:20:25.084Z,12.21
2023-05-15T03:22:53.000Z,12.17
2023-05-15T03:25:21.263Z,12.15
2023-05-15T03:27:49.231Z,12.13
2023-05-15T03:30:17.146Z,12.12
2023-05-15T03:32:45.059Z,12.07
2023-05-15T03:35:13.109Z,12.02
2023-05-15T03:37:42.292Z,12.04
2023-05-15T03:40:10.697Z,12.01
2023-05-15T03:42:38.462Z,11.99
2023-05-15T03:45:07.235Z,11.98
2023-05-15T03:47:34.962Z,11.94
2023-05-15T03:50:02.772Z,11.91
2023-05-15T03:52:30.600Z,11.89
2023-05-15T03:54:59.768Z,11.87
2023-05-15T03:57:27.594Z,11.85
2023-05-15T03:59:55.419Z,11.84
2023-05-15T04:02:23.188Z,11.83
2023-05-15T04:04:51.650Z,11.81
2023-05-15T04:07:19.426Z,11.80
2023-05-15T04:09:47.180Z,11.75
2023-05-15T04:12:16.237Z,11.73
2023-05-15T04:14:43.920Z,11.73
2023-05-15T04:17:11.645Z,11.72
2023-05-15T04:19:41.007Z,11.75
2023-05-15T04:22:08.821Z,11.74
2023-05-15T04:24:36.513Z,11.73
2023-05-15T04:27:04.520Z,11.75
2023-05-15T04:29:33.890Z,11.76
2023-05-15T04:32:02.400Z,11.79
2023-05-15T04:34:30.393Z,11.84
2023-05-15T04:36:58.554Z,11.85
2023-05-15T04:39:26.287Z,11.87
2023-05-15T04:41:54.029Z,11.90
2023-05-15T04:44:21.681Z,11.95
2023-05-15T04:46:50.805Z,12.01
2023-05-15T04:49:18.546Z,12.08
2023-05-15T04:51:46.330Z,12.14
2023-05-15T04:54:14.136Z,12.21
2023-05-15T04:56:41.814Z,12.29
2023-05-15T04:59:10.847Z,12.38
2023-05-15T05:01:38.654Z,12.45
2023-05-15T05:04:08.181Z,12.46
2023-05-15T05:06:36.201Z,12.51
2023-05-15T05:09:04.650Z,12.58
2023-05-15T05:11:32.451Z,12.63
2023-05-15T05:14:00.120Z,12.72
2023-05-15T05:16:27.975Z,12.78
2023-05-15T05:18:55.930Z,12.86
2023-05-15T05:21:24.983Z,12.94
2023-05-15T05:23:52.684Z,13.01
2023-05-15T05:26:21.002Z,13.08
2023-05-15T05:28:48.737Z,13.15
2023-05-15T05:31:16.531Z,13.20
2023-05-15T05:33:44.322Z,13.25
2023-05-15T05:36:12.621Z,13.30
2023-05-15T05:38:41.717Z,13.38
2023-05-15T05:41:09.510Z,13.46
2023-05-15T05:43:37.225Z,13.54
2023-05-15T05:46:05.249Z,13.61
2023-05-15T05:48:32.908Z,13.71
2023-05-15T05:51:00.725Z,13.82
2023-05-15T05:53:28.514Z,13.92
2023-05-15T05:55:57.784Z,14.00
2023-05-15T05:58:26.431Z,14.07
2023-05-15T06:00:54.571Z,14.17
2023-05-15T06:03:23.018Z,14.28
2023-05-15T06:05:51.019Z,14.36
2023-05-15T06:08:19.691Z,14.45
2023-05-15T06:10:47.616Z,14.58
2023-05-15T06:13:19.356Z,14.66
2023-05-15T06:15:47.548Z,14.78
2023-05-15T06:18:16.586Z,14.88
2023-05-15T06:20:44.380Z,14.99
2023-05-15T06:23:12.143Z,15.10
2023-05-15T06:25:40.168Z,15.24
2023-05-15T06:28:08.121Z,15.32
2023-05-15T06:30:37.258Z,15.43
2023-05-15T06:33:05.289Z,15.49
2023-05-15T06:35:33.093Z,15.53
2023-05-15T06:38:00.902Z,15.59
2023-05-15T06:40:28.705Z,15.65
2023-05-15T06:42:56.560Z,15.64
2023-05-15T06:45:24.604Z,15.66
2023-05-15T06:47:54.441Z,15.72
2023-05-15T06:50:22.349Z,15.80
2023-05-15T06:52:50.614Z,15.85
2023-05-15T06:55:18.535Z,15.93
2023-05-15T06:57:46.296Z,16.01
2023-05-15T07:00:15.527Z,16.09
2023-05-15T07:02:43.878Z,16.12
2023-05-15T07:05:13.479Z,16.17
2023-05-15T07:07:41.397Z,16.20
2023-05-15T07:10:10.369Z,16.25
2023-05-15T07:12:38.141Z,16.29
2023-05-15T07:15:06.822Z,16.39
2023-05-15T07:17:35.300Z,16.46
2023-05-15T07:20:06.071Z,16.51
2023-05-15T07:22:44.636Z,16.60
2023-05-15T07:25:20.021Z,16.73
2023-05-15T07:27:47.798Z,16.79
2023-05-15T07:30:16.678Z,16.85
2023-05-15T07:32:44.640Z,16.95
2023-05-15T07:35:12.775Z,17.01
2023-05-15T07:37:42.020Z,17.07
2023-05-15T07:40:10.555Z,17.14
2023-05-15T07:42:39.695Z,17.24
2023-05-15T07:45:08.722Z,17.37
2023-05-15T07:47:36.734Z,17.44
2023-05-15T07:50:04.997Z,17.48
2023-05-15T07:52:32.806Z,17.58
2023-05-15T07:55:01.941Z,17.68
2023-05-15T07:57:29.912Z,17.74
2023-05-15T07:59:57.833Z,17.79
2023-05-15T08:02:25.659Z,17.95
2023-05-15T08:04:53.522Z,18.08
2023-05-15T08:07:21.312Z,18.18
2023-05-15T08:09:49.157Z,18.13
2023-05-15T08:12:21.835Z,18.13
2023-05-15T08:14:50.819Z,18.18
2023-05-15T08:17:21.082Z,18.27
2023-05-15T08:19:49.171Z,18.35
2023-05-15T08:22:17.321Z,18.54
2023-05-15T08:24:45.832Z,18.74
2023-05-15T08:27:13.616Z,18.91
2023-05-15T08:29:42.688Z,19.09
2023-05-15T08:32:11.259Z,19.33
2023-05-15T08:34:39.225Z,19.50
2023-05-15T08:37:07.604Z,19.68
2023-05-15T08:39:35.402Z,19.78
2023-05-15T08:42:09.096Z,19.89
2023-05-15T08:44:37.596Z,20.06
2023-05-15T08:47:07.971Z,20.23
2023-05-15T08:49:46.033Z,20.43
2023-05-15T08:52:13.918Z,20.55
2023-05-15T08:54:42.388Z,20.67
2023-05-15T08:57:10.807Z,20.75
2023-05-15T08:59:39.142Z,20.92
2023-05-15T09:02:08.696Z,21.05
2023-05-15T09:04:36.503Z,21.12
2023-05-15T09:07:04.954Z,21.22
2023-05-15T09:09:35.314Z,21.40
2023-05-15T09:12:04.547Z,21.49
2023-05-15T09:14:32.577Z,21.53
2023-05-15T09:17:00.607Z,21.65
2023-05-15T09:19:29.972Z,21.77
2023-05-15T09:22:17.807Z,21.91
2023-05-15T09:24:48.091Z,21.96
2023-05-15T09:27:16.001Z,22.05
2023-05-15T09:29:44.366Z,22.18
2023-05-15T09:32:14.079Z,22.33
2023-05-15T09:34:44.702Z,22.37
2023-05-15T09:37:28.643Z,22.33
2023-05-15T09:39:56.782Z,22.18
2023-05-15T09:42:25.861Z,22.11
2023-05-15T09:44:53.559Z,22.20
2023-05-15T09:47:21.594Z,22.29
2023-05-15T09:49:51.006Z,22.26
2023-05-15T09:52:19.855Z,22.19
2023-05-15T09:54:50.329Z,22.14
2023-05-15T09:57:23.312Z,22.04
2023-05-15T09:59:51.502Z,22.08
2023-05-15T10:02:28.298Z,22.30
2023-05-15T10:04:59.429Z,22.55
2023-05-15T10:07:31.592Z,22.83
2023-05-15T10:10:00.264Z,22.98
2023-05-15T10:12:29.740Z,23.16
2023-05-15T10:14:59.649Z,23.41
2023-05-15T10:17:29.127Z,23.63
2023-05-15T10:20:00.704Z,23.60
2023-05-15T10:22:31.651Z,23.50
2023-05-15T10:25:10.268Z,23.33
2023-05-15T10:27:40.086Z,23.09
2023-05-15T10:30:10.892Z,23.01
2023-05-15T10:32:41.880Z,22.88
2023-05-15T10:35:13.584Z,22.95
2023-05-15T10:37:41.586Z,23.13
2023-05-15T10:40:11.429Z,23.21
2023-05-15T10:42:39.502Z,23.09
2023-05-15T10:45:10.507Z,22.95
2023-05-15T10:47:39.426Z,22.83
2023-05-15T10:50:08.589Z,22.63
2023-05-15T10:52:39.266Z,22.54
2023-05-15T10:55:14.750Z,22.35
2023-05-15T10:57:42.877Z,22.15
2023-05-15T11:00:27.141Z,21.98
2023-05-15T11:02:57.205Z,21.91
2023-05-15T11:05:25.826Z,21.87
2023-05-15T11:08:28.593Z,21.97
2023-05-15T11:10:56.467Z,22.09
2023-05-15T11:13:24.304Z,22.30
2023-05-15T11:15:52.334Z,22.57
2023-05-15T11:18:21.714Z,22.91
2023-05-15T11:21:09.737Z,23.14
2023-05-15T11:23:43.007Z,23.36
2023-05-15T11:26:10.871Z,23.57
2023-05-15T11:28:47.107Z,23.75
2023-05-15T11:31:15.973Z,23.95
2023-05-15T11:33:43.933Z,24.14
2023-05-15T11:36:15.821Z,24.38
2023-05-15T11:38:44.961Z,24.56
2023-05-15T11:41:21.838Z,24.77
2023-05-15T11:43:51.292Z,24.92
2023-05-15T11:46:19.241Z,24.97
2023-05-15T11:48:48.682Z,25.04
2023-05-15T11:51:19.452Z,24.75
2023-05-15T11:53:50.934Z,24.58
2023-05-15T11:56:19.757Z,24.40
2023-05-15T11:58:49.815Z,24.33
2023-05-15T12:01:17.849Z,24.37
2023-05-15T12:03:48.655Z,24.29
2023-05-15T12:06:17.225Z,24.37
2023-05-15T12:08:45.999Z,24.47
2023-05-15T12:11:15.576Z,24.50
2023-05-15T12:13:43.330Z,24.51
2023-05-15T12:16:11.351Z,24.58
2023-05-15T12:18:39.361Z,24.64
2023-05-15T12:21:07.266Z,24.62
2023-05-15T12:23:34.970Z,24.63
2023-05-15T12:26:04.526Z,24.78
2023-05-15T12:28:36.737Z,24.92
2023-05-15T12:31:05.066Z,25.09
2023-05-15T12:33:33.065Z,25.13
2023-05-15T12:36:01.826Z,25.22
2023-05-15T12:38:30.683Z,25.15
2023-05-15T12:40:58.777Z,25.24
2023-05-15T12:43:27.545Z,25.31
2023-05-15T12:45:57.838Z,25.49
2023-05-15T12:48:31.308Z,25.62
2023-05-15T12:51:07.184Z,25.77
2023-05-15T12:53:35.265Z,25.70
2023-05-15T12:56:04.526Z,25.71
2023-05-15T12:58:32.517Z,25.74
2023-05-15T13:01:03.064Z,25.72
2023-05-15T13:03:31.977Z,25.81
2023-05-15T13:06:00.149Z,25.86
2023-05-15T13:08:28.051Z,26.03
2023-05-15T13:10:58.733Z,25.87
2023-05-15T13:13:43.759Z,26.02
2023-05-15T13:16:21.884Z,25.98
2023-05-15T13:18:49.987Z,26.05
2023-05-15T13:21:18.621Z,26.11
2023-05-15T13:23:46.559Z,26.09
2023-05-15T13:26:14.633Z,26.37
2023-05-15T13:28:42.405Z,26.31
2023-05-15T13:31:10.418Z,26.35
2023-05-15T13:33:39.747Z,26.48
2023-05-15T13:36:08.379Z,26.57
2023-05-15T13:38:36.397Z,26.57
2023-05-15T13:41:05.251Z,26.37
2023-05-15T13:43:33.580Z,26.43
2023-05-15T13:46:01.642Z,26.33
2023-05-15T13:48:29.402Z,25.90
2023-05-15T13:50:58.737Z,25.98
2023-05-15T13:53:29.200Z,25.98
2023-05-15T13:55:56.908Z,25.73
2023-05-15T13:58:26.700Z,25.52
2023-05-15T14:00:54.666Z,25.12
2023-05-15T14:03:22.664Z,25.20
2023-05-15T14:05:51.230Z,25.26
2023-05-15T14:08:21.228Z,25.41
2023-05-15T14:10:48.962Z,25.30
2023-05-15T14:13:16.758Z,25.22
2023-05-15T14:15:44.646Z,25.27
2023-05-15T14:18:12.533Z,25.42
2023-05-15T14:20:40.335Z,25.42
2023-05-15T14:23:08.170Z,25.36
2023-05-15T14:25:37.400Z,25.33
2023-05-15T14:28:05.249Z,25.33
2023-05-15T14:30:33.037Z,25.23
2023-05-15T14:33:01.300Z,25.13
2023-05-15T14:35:29.108Z,25.14
2023-05-15T14:37:57.777Z,24.85
2023-05-15T14:40:25.902Z,24.58
2023-05-15T14:42:55.239Z,24.42
2023-05-15T14:45:23.317Z,24.25
2023-05-15T14:47:51.085Z,24.03
2023-05-15T14:50:19.154Z,23.98
2023-05-15T14:52:46.972Z,23.99
2023-05-15T14:55:15.033Z,23.82
2023-05-15T14:57:42.739Z,23.69
2023-05-15T15:00:13.634Z,23.45
2023-05-15T15:02:41.598Z,23.35
2023-05-15T15:05:10.710Z,23.23
2023-05-15T15:07:59.956Z,23.08
2023-05-15T15:10:28.095Z,22.99
2023-05-15T15:12:55.896Z,22.96
2023-05-15T15:15:25.704Z,22.95
2023-05-15T15:17:53.648Z,23.02
2023-05-15T15:20:23.005Z,23.11
2023-05-15T15:22:51.028Z,22.98
2023-05-15T15:25:19.426Z,22.74
2023-05-15T15:27:48.033Z,22.68
2023-05-15T15:30:17.130Z,22.76
2023-05-15T15:32:46.480Z,22.64
2023-05-15T15:35:14.901Z,22.54
2023-05-15T15:37:42.642Z,22.39
2023-05-15T15:40:12.037Z,22.12
2023-05-15T15:42:40.558Z,21.94
2023-05-15T15:45:09.212Z,21.82
2023-05-15T15:47:37.103Z,21.62
2023-05-15T15:50:07.114Z,21.42
2023-05-15T15:52:34.924Z,21.24
2023-05-15T15:55:02.661Z,21.09
2023-05-15T15:57:31.337Z,20.96
2023-05-15T15:59:59.173Z,20.86
2023-05-15T16:02:28.558Z,20.79
2023-05-15T16:04:56.377Z,20.64
2023-05-15T16:07:25.623Z,20.49
2023-05-15T16:10:04.234Z,20.26
2023-05-15T16:12:40.660Z,19.99
2023-05-15T16:15:21.786Z,19.84
2023-05-15T16:17:52.704Z,19.65
2023-05-15T16:20:21.138Z,19.55
2023-05-15T16:22:50.807Z,19.41
2023-05-15T16:25:18.586Z,19.30
2023-05-15T16:27:46.346Z,19.21
2023-05-15T16:30:15.132Z,19.15
2023-05-15T16:32:43.540Z,19.09
2023-05-15T16:35:12.065Z,19.07
2023-05-15T16:37:40.032Z,19.06
2023-05-15T16:40:10.342Z,19.06
2023-05-15T16:42:38.802Z,19.00
2023-05-15T16:45:08.166Z,18.96
2023-05-15T16:47:39.193Z,18.94
2023-05-15T16:50:07.941Z,18.96
2023-05-15T16:52:35.950Z,18.92
2023-05-15T16:55:04.168Z,18.89
2023-05-15T16:57:33.530Z,18.85
2023-05-15T17:00:01.243Z,18.80
2023-05-15T17:02:29.004Z,18.78
2023-05-15T17:04:56.764Z,18.75
2023-05-15T17:07:24.511Z,18.70
2023-05-15T17:09:52.350Z,18.66
2023-05-15T17:12:20.110Z,18.66
2023-05-15T17:14:49.243Z,18.65
2023-05-15T17:17:17.108Z,18.65
2023-05-15T17:19:44.927Z,18.65
2023-05-15T17:22:12.733Z,18.64
2023-05-15T17:24:51.010Z,18.68
2023-05-15T17:27:20.571Z,18.72
2023-05-15T17:29:50.257Z,18.75
2023-05-15T17:32:18.830Z,18.77
2023-05-15T17:34:47.346Z,18.76
2023-05-15T17:37:15.389Z,18.75
2023-05-15T17:39:43.346Z,18.76
2023-05-15T17:42:11.212Z,18.77
2023-05-15T17:44:39.273Z,18.78
2023-05-15T17:47:10.148Z,18.75
2023-05-15T17:49:38.642Z,18.75
2023-05-15T17:52:06.771Z,18.74
2023-05-15T17:54:34.700Z,18.68
2023-05-15T17:57:02.605Z,18.65
2023-05-15T17:59:31.023Z,18.61
2023-05-15T18:01:59.137Z,18.54
2023-05-15T18:04:28.491Z,18.48
2023-05-15T18:06:56.321Z,18.47
2023-05-15T18:09:24.823Z,18.44
2023-05-15T18:11:52.883Z,18.37
2023-05-15T18:14:20.769Z,18.33
2023-05-15T18:16:48.563Z,18.26
2023-05-15T18:19:16.569Z,18.21
2023-05-15T18:21:45.972Z,18.13
2023-05-15T18:24:13.844Z,18.00
2023-05-15T18:26:41.726Z,17.94
2023-05-15T18:29:09.762Z,17.94
2023-05-15T18:31:37.960Z,17.91
2023-05-15T18:34:05.936Z,17.88
2023-05-15T18:36:33.935Z,17.88
2023-05-15T18:39:03.555Z,17.83
2023-05-15T18:41:31.370Z,17.80
2023-05-15T18:43:59.093Z,17.74
2023-05-15T18:46:28.384Z,17.69
2023-05-15T18:48:56.376Z,17.66
2023-05-15T18:51:24.460Z,17.67
2023-05-15T18:53:52.367Z,17.62
2023-05-15T18:56:22.282Z,17.58
2023-05-15T18:58:50.064Z,17.42
2023-05-15T19:01:18.126Z,17.31
2023-05-15T19:03:46.040Z,17.17
2023-05-15T19:06:19.666Z,17.00
2023-05-15T19:08:48.150Z,16.88
2023-05-15T19:11:15.930Z,16.71
2023-05-15T19:13:45.102Z,16.59
2023-05-15T19:16:12.945Z,16.53
2023-05-15T19:18:40.837Z,16.44
2023-05-15T19:21:08.654Z,16.31
2023-05-15T19:23:36.346Z,16.23
2023-05-15T19:26:04.134Z,16.17
2023-05-15T19:28:32.480Z,16.11
2023-05-15T19:31:01.619Z,16.08
2023-05-15T19:33:29.533Z,16.04
2023-05-15T19:35:57.363Z,16.04
2023-05-15T19:38:25.569Z,15.96
2023-05-15T19:40:53.684Z,15.95
2023-05-15T19:43:21.466Z,15.89
2023-05-15T19:45:49.554Z,15.87
2023-05-15T19:48:18.849Z,15.86
2023-05-15T19:50:46.998Z,15.84
2023-05-15T19:53:14.764Z,15.78
2023-05-15T19:55:42.660Z,15.76
2023-05-15T19:58:10.621Z,15.66
2023-05-15T20:00:38.415Z,15.67
2023-05-15T20:03:06.351Z,15.65
2023-05-15T20:05:35.511Z,15.67
2023-05-15T20:08:03.298Z,15.72
2023-05-15T20:10:30.992Z,15.77
2023-05-15T20:12:58.886Z,15.81
2023-05-15T20:15:29.527Z,15.85
2023-05-15T20:17:57.451Z,15.85
2023-05-15T20:20:25.562Z,15.83
2023-05-15T20:22:54.863Z,15.79
2023-05-15T20:25:24.249Z,15.72
2023-05-15T20:27:56.360Z,15.69
2023-05-15T20:30:24.808Z,15.67
2023-05-15T20:32:52.767Z,15.70
2023-05-15T20:35:20.965Z,15.76
2023-05-15T20:37:48.929Z,15.69
2023-05-15T20:40:22.846Z,15.67
2023-05-15T20:42:50.774Z,15.62
2023-05-15T20:45:18.687Z,15.57
2023-05-15T20:47:47.105Z,15.50
2023-05-15T20:50:15.010Z,15.46
2023-05-15T20:52:42.971Z,15.42
2023-05-15T20:55:16.346Z,15.40
2023-05-15T20:57:46.401Z,15.36
2023-05-15T21:00:15.650Z,15.34
2023-05-15T21:02:43.998Z,15.29
2023-05-15T21:05:12.487Z,15.26
2023-05-15T21:07:40.463Z,15.25
2023-05-15T21:10:09.299Z,15.26
2023-05-15T21:12:37.063Z,15.24
2023-05-15T21:15:07.382Z,15.26
2023-05-15T21:17:35.203Z,15.26
2023-05-15T21:20:04.352Z,15.26
2023-05-15T21:22:32.174Z,15.25
2023-05-15T21:24:59.940Z,15.23
2023-05-15T21:27:27.904Z,15.23
2023-05-15T21:29:55.712Z,15.18
2023-05-15T21:32:24.823Z,15.18
2023-05-15T21:34:52.686Z,15.17
2023-05-15T21:37:20.482Z,15.16
2023-05-15T21:39:48.281Z,15.15
2023-05-15T21:42:16.274Z,15.12
2023-05-15T21:44:44.299Z,15.10
2023-05-15T21:47:12.123Z,15.06
2023-05-15T21:49:41.273Z,15.05
2023-05-15T21:52:09.223Z,15.05
2023-05-15T21:54:36.985Z,15.02
2023-05-15T21:57:05.133Z,14.99
2023-05-15T21:59:32.993Z,14.97
2023-05-15T22:02:00.987Z,14.92
2023-05-15T22:04:30.375Z,14.90
2023-05-15T22:06:59.518Z,14.85
2023-05-15T22:09:27.307Z,14.78
2023-05-15T22:11:55.085Z,14.70
2023-05-15T22:14:22.924Z,14.62
2023-05-15T22:16:50.997Z,14.57
2023-05-15T22:19:32.034Z,14.49
2023-05-15T22:22:03.450Z,14.45
2023-05-15T22:24:31.243Z,14.42
2023-05-15T22:26:58.986Z,14.40
2023-05-15T22:29:26.807Z,14.38
2023-05-15T22:31:54.666Z,14.37
2023-05-15T22:34:22.616Z,14.33
2023-05-15T22:36:50.385Z,14.32
2023-05-15T22:39:19.564Z,14.29
2023-05-15T22:41:47.560Z,14.24
2023-05-15T22:44:15.529Z,14.23
2023-05-15T22:46:44.042Z,14.22
2023-05-15T22:49:25.306Z,14.20
2023-05-15T22:51:53.249Z,14.17
2023-05-15T22:54:23.126Z,14.14
2023-05-15T22:56:52.669Z,14.14
2023-05-15T22:59:20.868Z,14.13
2023-05-15T23:01:49.229Z,14.14
2023-05-15T23:04:17.952Z,14.12
2023-05-15T23:06:46.092Z,14.10
2023-05-15T23:09:14.100Z,14.08
2023-05-15T23:11:43.268Z,14.07
2023-05-15T23:14:12.140Z,14.05
2023-05-15T23:16:40.113Z,14.04
2023-05-15T23:19:07.884Z,14.03
2023-05-15T23:21:36.151Z,14.03
2023-05-15T23:24:03.982Z,13.99
2023-05-15T23:26:31.658Z,13.99
2023-05-15T23:29:00.891Z,14.00
2023-05-15T23:31:29.022Z,13.97
2023-05-15T23:33:56.795Z,13.95
2023-05-15T23:36:24.617Z,13.93
2023-05-15T23:38:52.473Z,13.89
2023-05-15T23:41:21.993Z,13.89
2023-05-15T23:43:50.713Z,13.87
2023-05-15T23:46:19.853Z,13.80
2023-05-15T23:48:47.621Z,13.76
2023-05-15T23:51:15.757Z,13.71
2023-05-15T23:53:43.563Z,13.68
2023-05-15T23:56:11.282Z,13.64
2023-05-15T23:58:38.991Z,13.62
